createdAt,value
2022-09-23T00:02:52.133Z,8.13
2022-09-23T00:06:00.121Z,8.09
2022-09-23T00:09:02.715Z,8.01
2022-09-23T00:12:09.019Z,8.22
2022-09-23T00:15:12.303Z,8.24
2022-09-23T00:18:15.465Z,8.10
2022-09-23T00:21:19.113Z,8.12
2022-09-23T00:24:21.902Z,7.98
2022-09-23T00:27:24.480Z,7.98
2022-09-23T00:30:27.484Z,7.92
2022-09-23T00:33:29.971Z,7.95
2022-09-23T00:36:32.882Z,7.95
2022-09-23T00:39:35.395Z,7.90
2022-09-23T00:42:38.312Z,7.98
2022-09-23T00:45:45.287Z,7.80
2022-09-23T00:48:53.266Z,7.80
2022-09-23T00:52:05.377Z,7.67
2022-09-23T00:55:13.608Z,7.79
2022-09-23T00:58:22.135Z,7.61
2022-09-23T01:01:27.803Z,7.71
2022-09-23T01:04:30.769Z,7.63
2022-09-23T01:07:34.878Z,7.60
2022-09-23T01:11:08.147Z,7.77
2022-09-23T01:14:23.147Z,7.65
2022-09-23T01:17:28.390Z,7.46
2022-09-23T01:20:42.036Z,7.57
2022-09-23T01:24:32.860Z,7.46
2022-09-23T01:27:56.314Z,7.55
2022-09-23T01:30:58.770Z,7.46
2022-09-23T01:34:15.979Z,7.52
2022-09-23T01:37:31.342Z,7.52
2022-09-23T01:40:42.706Z,7.26
2022-09-23T01:44:17.879Z,7.49
2022-09-23T01:47:42.432Z,7.32
2022-09-23T01:51:13.168Z,7.29
2022-09-23T01:54:20.841Z,7.15
2022-09-23T01:57:33.421Z,7.15
2022-09-23T02:00:42.829Z,7.06
2022-09-23T02:03:55.611Z,6.88
2022-09-23T02:07:04.881Z,6.94
2022-09-23T02:10:14.156Z,7.00
2022-09-23T02:13:32.620Z,7.03
2022-09-23T02:16:53.639Z,6.90
2022-09-23T02:20:02.768Z,7.04
2022-09-23T02:23:13.607Z,6.98
2022-09-23T02:26:25.125Z,6.95
2022-09-23T02:29:59.926Z,6.94
2022-09-23T02:33:27.589Z,6.88
2022-09-23T02:36:59.701Z,6.84
2022-09-23T02:40:13.276Z,6.89
2022-09-23T02:43:35.444Z,6.73
2022-09-23T02:46:38.832Z,6.81
2022-09-23T02:49:41.895Z,6.81
2022-09-23T02:52:44.993Z,6.66
2022-09-23T02:55:47.968Z,6.60
2022-09-23T02:58:54.174Z,6.76
2022-09-23T03:02:05.927Z,6.56
2022-09-23T03:05:26.572Z,6.68
2022-09-23T03:08:49.124Z,6.62
2022-09-23T03:12:00.297Z,6.55
2022-09-23T03:15:26.081Z,6.69
2022-09-23T03:18:36.869Z,6.72
2022-09-23T03:21:46.683Z,6.54
2022-09-23T03:24:54.022Z,6.49
2022-09-23T03:27:59.262Z,6.52
2022-09-23T03:31:02.807Z,6.63
2022-09-23T03:34:20.680Z,6.59
2022-09-23T03:37:35.802Z,6.52
2022-09-23T03:40:43.796Z,6.55
2022-09-23T03:43:47.921Z,6.57
2022-09-23T03:46:51.015Z,6.58
2022-09-23T03:49:54.456Z,6.58
2022-09-23T03:52:58.403Z,6.48
2022-09-23T03:56:01.338Z,6.60
2022-09-23T03:59:04.277Z,6.62
2022-09-23T04:02:27.452Z,6.65
2022-09-23T04:05:30.492Z,6.71
2022-09-23T04:08:33.178Z,6.68
2022-09-23T04:11:36.732Z,6.75
2022-09-23T04:15:03.022Z,6.75
2022-09-23T04:18:07.493Z,6.65
2022-09-23T04:21:10.502Z,6.69
2022-09-23T04:24:15.286Z,6.56
2022-09-23T04:27:17.917Z,6.67
2022-09-23T04:30:21.270Z,6.75
2022-09-23T04:33:30.216Z,6.76
2022-09-23T04:36:33.696Z,6.69
2022-09-23T04:39:36.555Z,6.67
2022-09-23T04:42:39.672Z,6.60
2022-09-23T04:45:45.142Z,6.56
2022-09-23T04:48:48.395Z,6.82
2022-09-23T04:51:51.295Z,7.13
2022-09-23T04:54:56.383Z,7.30
2022-09-23T04:57:59.769Z,7.62
2022-09-23T05:01:12.435Z,7.88
2022-09-23T05:04:15.105Z,8.09
2022-09-23T05:07:19.130Z,8.39
2022-09-23T05:10:22.543Z,8.47
2022-09-23T05:13:25.736Z,8.67
2022-09-23T05:16:28.870Z,8.92
2022-09-23T05:19:31.855Z,9.33
2022-09-23T05:22:35.222Z,9.57
2022-09-23T05:25:38.687Z,9.71
2022-09-23T05:28:41.344Z,10.24
2022-09-23T05:31:44.466Z,10.56
2022-09-23T05:34:47.484Z,10.83
2022-09-23T05:37:50.545Z,11.01
2022-09-23T05:40:57.580Z,11.15
2022-09-23T05:44:00.635Z,11.78
2022-09-23T05:47:03.209Z,12.33
2022-09-23T05:50:06.673Z,12.24
2022-09-23T05:53:09.397Z,13.15
2022-09-23T05:56:14.517Z,12.93
2022-09-23T05:59:41.146Z,13.27
2022-09-23T06:02:48.836Z,13.38
2022-09-23T06:05:56.007Z,13.65
2022-09-23T06:08:59.381Z,14.03
2022-09-23T06:12:03.811Z,14.50
2022-09-23T06:15:07.086Z,14.53
2022-09-23T06:18:10.954Z,14.93
2022-09-23T06:21:16.794Z,15.35
2022-09-23T06:24:22.914Z,16.15
2022-09-23T06:27:26.492Z,15.39
2022-09-23T06:30:29.699Z,15.57
2022-09-23T06:33:37.106Z,15.61
2022-09-23T06:36:45.050Z,15.76
2022-09-23T06:39:49.222Z,16.08
2022-09-23T06:42:59.851Z,16.30
2022-09-23T06:46:04.658Z,16.52
2022-09-23T06:49:07.705Z,16.76
2022-09-23T06:52:10.392Z,16.46
2022-09-23T06:55:13.198Z,17.45
2022-09-23T06:58:15.898Z,17.09
2022-09-23T07:01:19.942Z,16.23
2022-09-23T07:04:26.070Z,16.55
2022-09-23T07:07:31.819Z,17.77
2022-09-23T07:10:41.626Z,17.99
2022-09-23T07:13:44.641Z,17.73
2022-09-23T07:16:50.855Z,17.78
2022-09-23T07:19:55.091Z,16.57
2022-09-23T07:22:57.655Z,17.69
2022-09-23T07:26:00.637Z,17.94
2022-09-23T07:29:05.250Z,17.88
2022-09-23T07:32:13.884Z,18.17
2022-09-23T07:35:16.901Z,18.30
2022-09-23T07:38:20.105Z,18.40
2022-09-23T07:41:29.079Z,17.85
2022-09-23T07:44:32.581Z,18.64
2022-09-23T07:47:35.779Z,19.25
2022-09-23T07:50:40.430Z,19.30
2022-09-23T07:53:49.409Z,17.97
2022-09-23T07:56:54.481Z,18.84
2022-09-23T07:59:58.586Z,18.91
2022-09-23T08:03:08.079Z,19.43
2022-09-23T08:06:12.706Z,18.61
2022-09-23T08:09:17.318Z,19.88
2022-09-23T08:12:23.339Z,19.89
2022-09-23T08:15:28.395Z,20.71
2022-09-23T08:18:34.818Z,20.98
2022-09-23T08:22:03.849Z,22.09
2022-09-23T08:25:11.143Z,21.76
2022-09-23T08:28:18.862Z,19.69
2022-09-23T08:31:23.337Z,19.93
2022-09-23T08:34:28.348Z,19.38
2022-09-23T08:37:31.366Z,19.56
2022-09-23T08:40:37.705Z,19.12
2022-09-23T08:43:48.802Z,21.41
2022-09-23T08:47:01.284Z,20.92
2022-09-23T08:50:24.188Z,21.70
2022-09-23T08:53:31.241Z,22.90
2022-09-23T08:56:37.296Z,22.19
2022-09-23T08:59:45.000Z,20.40
2022-09-23T09:02:49.892Z,20.62
2022-09-23T09:05:56.977Z,22.12
2022-09-23T09:09:03.048Z,19.63
2022-09-23T09:12:27.066Z,18.51
2022-09-23T09:15:30.102Z,20.09
2022-09-23T09:18:36.516Z,20.71
2022-09-23T09:21:42.594Z,20.99
2022-09-23T09:24:49.722Z,21.98
2022-09-23T09:28:01.576Z,20.53
2022-09-23T09:31:32.476Z,19.46
2022-09-23T09:34:57.310Z,19.09
2022-09-23T09:38:03.026Z,19.01
2022-09-23T09:41:14.474Z,19.22
2022-09-23T09:44:48.262Z,17.73
2022-09-23T09:48:03.048Z,19.02
2022-09-23T09:51:27.729Z,18.80
2022-09-23T09:54:31.174Z,18.65
2022-09-23T09:57:47.969Z,20.69
2022-09-23T10:00:52.844Z,20.12
2022-09-23T10:03:59.712Z,18.67
2022-09-23T10:07:07.399Z,18.42
2022-09-23T10:10:33.850Z,18.58
2022-09-23T10:13:38.061Z,18.25
2022-09-23T10:16:42.134Z,17.93
2022-09-23T10:19:51.358Z,18.41
2022-09-23T10:23:04.569Z,18.38
2022-09-23T10:26:10.689Z,20.20
2022-09-23T10:29:34.182Z,21.65
2022-09-23T10:33:00.320Z,22.41
2022-09-23T10:36:04.275Z,22.11
2022-09-23T10:39:29.542Z,21.31
2022-09-23T10:43:19.787Z,21.49
2022-09-23T10:46:39.850Z,21.83
2022-09-23T10:49:55.326Z,21.66
2022-09-23T10:53:24.155Z,22.69
2022-09-23T10:56:37.368Z,22.16
2022-09-23T10:59:56.513Z,20.77
2022-09-23T11:03:20.629Z,20.03
2022-09-23T11:06:45.764Z,18.81
2022-09-23T11:10:52.456Z,18.68
2022-09-23T11:14:23.395Z,18.34
2022-09-23T11:17:47.630Z,18.02
2022-09-23T11:21:12.035Z,17.83
2022-09-23T11:24:50.295Z,18.22
2022-09-23T11:28:09.842Z,18.33
2022-09-23T11:31:22.866Z,18.85
2022-09-23T11:34:27.368Z,19.25
2022-09-23T11:37:46.181Z,18.86
2022-09-23T11:40:55.001Z,18.76
2022-09-23T11:44:20.901Z,21.08
2022-09-23T11:47:35.341Z,20.83
2022-09-23T11:50:47.935Z,20.20
2022-09-23T11:53:57.901Z,20.81
2022-09-23T11:57:08.751Z,20.28
2022-09-23T12:00:39.085Z,20.43
2022-09-23T12:04:18.459Z,20.29
2022-09-23T12:07:31.047Z,20.57
2022-09-23T12:10:52.678Z,20.80
2022-09-23T12:14:33.728Z,20.73
2022-09-23T12:18:00.786Z,20.45
2022-09-23T12:21:38.815Z,20.92
2022-09-23T12:24:47.401Z,19.71
2022-09-23T12:27:53.237Z,19.85
2022-09-23T12:31:00.446Z,19.49
2022-09-23T12:34:20.014Z,18.92
2022-09-23T12:37:26.640Z,19.00
2022-09-23T12:40:41.997Z,18.77
2022-09-23T12:44:08.378Z,19.13
2022-09-23T12:47:31.438Z,18.65
2022-09-23T12:50:58.588Z,18.38
2022-09-23T12:54:07.795Z,19.00
2022-09-23T12:57:35.806Z,18.83
2022-09-23T13:00:40.848Z,19.08
2022-09-23T13:04:08.613Z,19.40
2022-09-23T13:07:17.656Z,19.17
2022-09-23T13:10:50.175Z,19.19
2022-09-23T13:13:57.119Z,19.10
2022-09-23T13:17:00.962Z,19.16
2022-09-23T13:20:34.973Z,18.94
2022-09-23T13:23:37.915Z,19.02
2022-09-23T13:26:49.948Z,18.68
2022-09-23T13:30:00.233Z,18.85
2022-09-23T13:33:05.195Z,19.00
2022-09-23T13:36:17.661Z,18.75
2022-09-23T13:39:26.407Z,18.97
2022-09-23T13:42:30.547Z,18.85
2022-09-23T13:45:43.147Z,18.70
2022-09-23T13:48:48.966Z,18.82
2022-09-23T13:51:54.174Z,18.31
2022-09-23T13:54:57.411Z,17.91
2022-09-23T13:58:06.543Z,18.40
2022-09-23T14:01:22.274Z,18.43
2022-09-23T14:04:27.211Z,18.50
2022-09-23T14:07:32.875Z,18.47
2022-09-23T14:10:42.876Z,18.22
2022-09-23T14:13:50.730Z,18.13
2022-09-23T14:16:56.104Z,18.28
2022-09-23T14:19:59.029Z,18.63
2022-09-23T14:23:13.948Z,18.17
2022-09-23T14:26:16.617Z,18.13
2022-09-23T14:29:24.535Z,18.08
2022-09-23T14:32:29.761Z,18.14
2022-09-23T14:35:44.647Z,18.12
2022-09-23T14:38:54.792Z,17.97
2022-09-23T14:41:57.676Z,17.99
2022-09-23T14:45:00.263Z,17.95
2022-09-23T14:48:06.479Z,17.73
2022-09-23T14:51:14.627Z,17.52
2022-09-23T14:54:41.684Z,17.54
2022-09-23T14:57:51.731Z,17.79
2022-09-23T15:01:02.564Z,17.72
2022-09-23T15:04:14.106Z,17.56
2022-09-23T15:07:20.798Z,17.41
2022-09-23T15:10:30.562Z,17.48
2022-09-23T15:13:39.619Z,17.38
2022-09-23T15:16:42.342Z,17.14
2022-09-23T15:19:52.703Z,17.11
2022-09-23T15:22:56.346Z,17.18
2022-09-23T15:26:06.953Z,17.27
2022-09-23T15:29:10.450Z,17.36
2022-09-23T15:32:13.324Z,17.16
2022-09-23T15:35:19.033Z,17.36
2022-09-23T15:38:22.643Z,17.82
2022-09-23T15:41:25.516Z,17.45
2022-09-23T15:44:30.495Z,17.19
2022-09-23T15:47:41.868Z,17.43
2022-09-23T15:50:50.495Z,17.16
2022-09-23T15:53:55.281Z,17.02
2022-09-23T15:57:00.674Z,17.43
2022-09-23T16:00:24.916Z,17.47
2022-09-23T16:03:30.663Z,17.42
2022-09-23T16:06:35.347Z,17.33
2022-09-23T16:09:38.864Z,16.99
2022-09-23T16:13:04.914Z,16.82
2022-09-23T16:16:13.157Z,16.93
2022-09-23T16:19:37.058Z,16.38
2022-09-23T16:23:14.011Z,16.69
2022-09-23T16:26:22.430Z,16.36
2022-09-23T16:29:28.795Z,16.29
2022-09-23T16:32:33.458Z,16.05
2022-09-23T16:35:40.090Z,15.98
2022-09-23T16:38:45.968Z,15.93
2022-09-23T16:42:10.820Z,15.75
2022-09-23T16:45:20.939Z,15.74
2022-09-23T16:48:27.204Z,15.61
2022-09-23T16:55:01.850Z,15.39
2022-09-23T16:58:06.238Z,15.34
2022-09-23T17:01:43.602Z,15.31
2022-09-23T17:04:46.780Z,15.39
2022-09-23T17:07:51.730Z,15.28
2022-09-23T17:11:18.075Z,15.21
2022-09-23T17:14:22.098Z,15.34
2022-09-23T17:17:24.850Z,15.26
2022-09-23T17:20:41.366Z,15.22
2022-09-23T17:23:46.010Z,15.13
2022-09-23T17:26:53.479Z,14.89
2022-09-23T17:29:59.495Z,14.77
2022-09-23T17:33:04.510Z,14.76
2022-09-23T17:36:12.744Z,14.74
2022-09-23T17:39:18.695Z,14.59
2022-09-23T17:42:22.846Z,14.53
2022-09-23T17:45:28.025Z,14.44
2022-09-23T17:48:55.723Z,14.43
2022-09-23T17:52:05.695Z,14.34
2022-09-23T17:55:08.856Z,14.37
2022-09-23T18:01:29.343Z,14.42
2022-09-23T18:04:32.298Z,14.36
2022-09-23T18:07:34.766Z,14.25
2022-09-23T18:10:37.652Z,14.28
2022-09-23T18:13:40.423Z,14.09
2022-09-23T18:16:45.623Z,14.00
2022-09-23T18:19:49.318Z,14.14
2022-09-23T18:22:52.447Z,13.99
2022-09-23T18:25:56.249Z,13.70
2022-09-23T18:29:03.948Z,13.59
2022-09-23T18:32:12.116Z,13.56
2022-09-23T18:35:17.038Z,13.61
2022-09-23T18:38:20.438Z,13.49
2022-09-23T18:41:23.422Z,13.46
2022-09-23T18:44:26.714Z,13.36
2022-09-23T18:47:48.238Z,13.14
2022-09-23T18:50:54.196Z,13.25
2022-09-23T18:53:58.617Z,13.14
2022-09-23T18:57:01.722Z,13.05
2022-09-23T19:00:06.056Z,13.18
2022-09-23T19:03:08.716Z,13.00
2022-09-23T19:06:21.153Z,12.88
2022-09-23T19:09:28.957Z,12.98
2022-09-23T19:12:35.327Z,12.94
2022-09-23T19:15:38.443Z,12.92
2022-09-23T19:18:50.864Z,12.83
2022-09-23T19:21:54.906Z,12.59
2022-09-23T19:24:58.084Z,12.62
2022-09-23T19:28:00.875Z,12.48
2022-09-23T19:31:12.100Z,12.46
2022-09-23T19:34:19.494Z,12.52
2022-09-23T19:37:23.879Z,12.47
2022-09-23T19:43:48.936Z,12.35
2022-09-23T19:46:56.510Z,12.23
2022-09-23T19:50:07.822Z,12.25
2022-09-23T19:53:10.800Z,12.05
2022-09-23T19:56:18.014Z,12.03
2022-09-23T19:59:23.408Z,11.90
2022-09-23T20:02:28.252Z,11.68
2022-09-23T20:05:34.839Z,11.66
2022-09-23T20:08:38.937Z,11.60
2022-09-23T20:11:50.725Z,11.63
2022-09-23T20:14:57.841Z,11.58
2022-09-23T20:18:09.055Z,11.66
2022-09-23T20:21:16.944Z,11.59
2022-09-23T20:24:23.206Z,11.53
2022-09-23T20:27:36.989Z,11.44
2022-09-23T20:30:41.108Z,11.27
2022-09-23T20:33:58.383Z,11.16
2022-09-23T20:37:01.430Z,11.15
2022-09-23T20:40:05.700Z,11.06
2022-09-23T20:43:11.186Z,10.92
2022-09-23T20:46:19.493Z,10.78
2022-09-23T20:49:22.769Z,10.78
2022-09-23T20:52:27.641Z,10.81
2022-09-23T20:55:30.439Z,10.89
2022-09-23T20:58:37.392Z,10.89
2022-09-23T21:01:41.462Z,10.82
2022-09-23T21:04:44.489Z,10.60
2022-09-23T21:07:47.476Z,10.24
2022-09-23T21:10:56.702Z,10.19
2022-09-23T21:14:01.164Z,10.24
2022-09-23T21:17:03.876Z,10.32
2022-09-23T21:20:08.497Z,10.27
2022-09-23T21:23:11.105Z,10.11
2022-09-23T21:26:19.377Z,10.21
2022-09-23T21:29:23.198Z,10.18
2022-09-23T21:32:28.009Z,10.04
2022-09-23T21:35:31.237Z,9.92
2022-09-23T21:38:36.210Z,9.57
2022-09-23T21:41:39.598Z,9.72
2022-09-23T21:44:42.406Z,9.87
2022-09-23T21:47:44.929Z,9.96
2022-09-23T21:50:54.840Z,10.01
2022-09-23T21:53:58.416Z,9.96
2022-09-23T21:57:01.418Z,9.92
2022-09-23T22:00:06.897Z,9.83
2022-09-23T22:03:09.621Z,9.98
2022-09-23T22:06:14.530Z,10.05
2022-09-23T22:09:22.362Z,9.94
2022-09-23T22:12:25.304Z,9.91
2022-09-23T22:15:28.003Z,9.84
2022-09-23T22:18:31.077Z,9.47
2022-09-23T22:21:36.575Z,9.28
2022-09-23T22:24:49.014Z,9.32
2022-09-23T22:28:10.212Z,9.25
2022-09-23T22:31:31.717Z,9.26
2022-09-23T22:34:49.571Z,9.02
2022-09-23T22:37:54.717Z,8.89
2022-09-23T22:40:59.945Z,8.76
2022-09-23T22:44:03.706Z,8.68
2022-09-23T22:47:06.358Z,8.70
2022-09-23T22:50:11.399Z,8.63
2022-09-23T22:53:14.187Z,8.60
2022-09-23T22:56:17.243Z,8.55
2022-09-23T22:59:20.437Z,8.47
2022-09-23T23:02:23.850Z,8.51
2022-09-23T23:05:26.748Z,8.68
2022-09-23T23:08:30.620Z,8.82
2022-09-23T23:11:33.278Z,8.71
2022-09-23T23:14:36.882Z,8.76
2022-09-23T23:17:40.525Z,8.98
2022-09-23T23:20:43.361Z,8.84
2022-09-23T23:23:49.115Z,8.67
2022-09-23T23:26:52.543Z,8.54
2022-09-23T23:29:55.082Z,8.40
2022-09-23T23:32:57.868Z,8.43
2022-09-23T23:36:00.766Z,8.56
2022-09-23T23:39:03.762Z,8.51
2022-09-23T23:42:06.353Z,8.31
2022-09-23T23:45:09.492Z,8.28
2022-09-23T23:48:13.501Z,8.20
2022-09-23T23:51:16.896Z,8.34
2022-09-23T23:54:19.457Z,8.34
2022-09-23T23:57:23.544Z,8.20
